createdAt,value
2023-04-19T00:01:06.645Z,10.80
2023-04-19T00:03:37.390Z,10.92
2023-04-19T00:06:22.956Z,10.92
2023-04-19T00:08:53.156Z,10.94
2023-04-19T00:11:25.657Z,10.87
2023-04-19T00:14:09.404Z,10.79
2023-04-19T00:16:48.968Z,10.76
2023-04-19T00:19:26.409Z,10.74
2023-04-19T00:21:58.250Z,10.62
2023-04-19T00:24:28.403Z,10.77
2023-04-19T00:27:04.722Z,10.73
2023-04-19T00:29:34.220Z,10.75
2023-04-19T00:32:09.002Z,10.73
2023-04-19T00:34:41.150Z,10.46
2023-04-19T00:37:16.090Z,10.77
2023-04-19T00:40:01.770Z,10.78
2023-04-19T00:42:35.355Z,10.54
2023-04-19T00:45:07.205Z,10.36
2023-04-19T00:47:40.242Z,10.49
2023-04-19T00:50:12.274Z,10.49
2023-04-19T00:52:43.002Z,10.45
2023-04-19T00:58:01.821Z,10.34
2023-04-19T01:00:31.833Z,10.38
2023-04-19T01:03:00.866Z,10.34
2023-04-19T01:08:21.090Z,10.12
2023-04-19T01:10:52.958Z,10.12
2023-04-19T01:13:26.009Z,10.03
2023-04-19T01:16:03.360Z,10.02
2023-04-19T01:18:41.145Z,10.02
2023-04-19T01:21:13.265Z,10.07
2023-04-19T01:23:43.718Z,10.11
2023-04-19T01:26:18.664Z,10.11
2023-04-19T01:31:38.263Z,10.15
2023-04-19T01:34:10.890Z,9.95
2023-04-19T01:36:44.346Z,10.15
2023-04-19T01:39:16.518Z,9.98
2023-04-19T01:41:53.559Z,10.02
2023-04-19T01:44:27.937Z,9.97
2023-04-19T01:46:58.187Z,9.97
2023-04-19T01:49:34.524Z,9.91
2023-04-19T01:52:11.916Z,9.90
2023-04-19T01:54:43.671Z,9.85
2023-04-19T01:57:16.818Z,9.94
2023-04-19T01:59:55.844Z,9.96
2023-04-19T02:02:28.185Z,9.97
2023-04-19T02:05:01.519Z,9.91
2023-04-19T02:07:42.245Z,10.02
2023-04-19T02:10:23.325Z,10.07
2023-04-19T02:12:55.870Z,9.92
2023-04-19T02:15:34.829Z,9.87
2023-04-19T02:18:16.317Z,9.80
2023-04-19T02:20:50.647Z,9.81
2023-04-19T02:23:35.286Z,9.72
2023-04-19T02:26:09.579Z,9.78
2023-04-19T02:28:44.134Z,9.86
2023-04-19T02:31:20.245Z,9.90
2023-04-19T02:33:49.223Z,9.80
2023-04-19T02:36:24.978Z,9.82
2023-04-19T02:38:57.937Z,9.86
2023-04-19T02:41:26.485Z,9.79
2023-04-19T02:44:16.664Z,9.72
2023-04-19T02:47:02.279Z,9.68
2023-04-19T02:49:48.994Z,9.63
2023-04-19T02:52:21.103Z,9.59
2023-04-19T02:54:54.641Z,9.60
2023-04-19T02:57:25.775Z,9.62
2023-04-19T03:00:05.344Z,9.63
2023-04-19T03:05:21.844Z,9.78
2023-04-19T03:07:56.078Z,9.77
2023-04-19T03:10:32.656Z,9.65
2023-04-19T03:13:04.337Z,9.56
2023-04-19T03:15:42.193Z,9.64
2023-04-19T03:18:11.242Z,9.64
2023-04-19T03:20:50.975Z,9.67
2023-04-19T03:23:23.868Z,9.63
2023-04-19T03:26:05.265Z,9.61
2023-04-19T03:28:42.649Z,9.67
2023-04-19T03:31:46.873Z,9.05
2023-04-19T03:34:21.194Z,9.13
2023-04-19T03:36:54.477Z,9.32
2023-04-19T03:39:22.526Z,9.46
2023-04-19T03:42:09.383Z,9.51
2023-04-19T03:44:56.108Z,9.40
2023-04-19T03:47:46.182Z,9.47
2023-04-19T03:50:19.862Z,9.31
2023-04-19T03:53:18.131Z,9.31
2023-04-19T03:55:49.655Z,9.28
2023-04-19T03:58:21.759Z,9.34
2023-04-19T04:01:30.300Z,9.39
2023-04-19T04:03:58.274Z,9.31
2023-04-19T04:06:55.884Z,9.33
2023-04-19T04:09:27.382Z,9.23
2023-04-19T04:12:04.897Z,9.23
2023-04-19T04:14:41.633Z,9.36
2023-04-19T04:17:46.124Z,9.35
2023-04-19T04:20:16.629Z,9.37
2023-04-19T04:23:09.107Z,9.29
2023-04-19T04:25:45.463Z,9.36
2023-04-19T04:28:31.284Z,9.34
2023-04-19T04:31:05.600Z,9.29
2023-04-19T04:33:41.316Z,9.19
2023-04-19T04:36:23.273Z,9.23
2023-04-19T04:39:08.094Z,9.21
2023-04-19T04:41:55.550Z,9.39
2023-04-19T04:45:00.675Z,9.43
2023-04-19T04:48:05.234Z,9.52
2023-04-19T04:50:40.213Z,9.44
2023-04-19T04:53:13.053Z,9.38
2023-04-19T04:55:51.048Z,9.40
2023-04-19T04:58:29.491Z,9.48
2023-04-19T05:01:07.595Z,9.57
2023-04-19T05:03:46.368Z,9.53
2023-04-19T05:06:21.643Z,9.59
2023-04-19T05:08:57.732Z,9.63
2023-04-19T05:11:40.974Z,9.74
2023-04-19T05:14:29.127Z,9.68
2023-04-19T05:17:04.781Z,9.66
2023-04-19T05:19:34.626Z,9.64
2023-04-19T05:22:13.683Z,9.68
2023-04-19T05:24:59.829Z,9.74
2023-04-19T05:27:30.797Z,9.76
2023-04-19T05:30:05.157Z,9.78
2023-04-19T05:32:48.733Z,9.74
2023-04-19T05:35:22.842Z,9.80
2023-04-19T05:38:01.369Z,9.83
2023-04-19T05:40:31.577Z,9.94
2023-04-19T05:43:03.929Z,10.02
2023-04-19T05:45:36.332Z,10.29
2023-04-19T05:48:12.860Z,10.29
2023-04-19T05:51:14.326Z,10.31
2023-04-19T05:54:18.223Z,10.46
2023-04-19T05:56:50.970Z,10.58
2023-04-19T05:59:28.206Z,10.64
2023-04-19T06:02:02.180Z,10.68
2023-04-19T06:04:34.090Z,10.67
2023-04-19T06:07:10.524Z,10.74
2023-04-19T06:09:48.032Z,10.83
2023-04-19T06:15:04.724Z,10.82
2023-04-19T06:17:35.674Z,10.97
2023-04-19T06:20:09.813Z,11.06
2023-04-19T06:25:36.260Z,11.01
2023-04-19T06:28:07.797Z,11.17
2023-04-19T06:30:38.743Z,10.91
2023-04-19T06:33:08.876Z,11.28
2023-04-19T06:35:39.622Z,11.52
2023-04-19T06:41:29.472Z,11.90
2023-04-19T06:44:12.041Z,11.99
2023-04-19T06:46:40.281Z,11.84
2023-04-19T06:51:53.360Z,12.12
2023-04-19T06:54:25.130Z,12.10
2023-04-19T06:56:59.874Z,12.10
2023-04-19T07:02:17.032Z,12.26
2023-04-19T07:04:49.456Z,12.85
2023-04-19T07:07:23.613Z,12.71
2023-04-19T07:10:02.271Z,12.87
2023-04-19T07:12:35.179Z,12.96
2023-04-19T07:15:11.985Z,13.01
2023-04-19T07:17:44.951Z,12.97
2023-04-19T07:20:13.314Z,13.18
2023-04-19T07:22:45.781Z,13.03
2023-04-19T07:25:15.481Z,13.17
2023-04-19T07:27:47.197Z,13.17
2023-04-19T07:30:16.920Z,13.17
2023-04-19T07:32:47.549Z,13.30
2023-04-19T07:35:20.907Z,13.72
2023-04-19T07:37:53.706Z,14.02
2023-04-19T07:40:24.083Z,13.79
2023-04-19T07:43:00.091Z,13.64
2023-04-19T07:45:33.943Z,13.81
2023-04-19T07:48:04.729Z,13.67
2023-04-19T07:50:42.870Z,13.43
2023-04-19T07:53:13.089Z,13.63
2023-04-19T07:55:46.535Z,13.89
2023-04-19T07:58:23.525Z,14.37
2023-04-19T08:01:01.548Z,14.30
2023-04-19T08:03:38.886Z,14.52
2023-04-19T08:06:13.288Z,14.66
2023-04-19T08:08:50.222Z,14.46
2023-04-19T08:11:31.073Z,14.56
2023-04-19T08:14:28.516Z,14.71
2023-04-19T08:19:56.268Z,14.70
2023-04-19T08:22:30.753Z,13.89
2023-04-19T08:25:09.944Z,14.63
2023-04-19T08:27:46.319Z,14.82
2023-04-19T08:30:18.540Z,14.96
2023-04-19T08:33:04.420Z,14.68
2023-04-19T08:35:40.829Z,14.90
2023-04-19T08:38:13.244Z,15.03
2023-04-19T08:40:50.654Z,14.86
2023-04-19T08:43:22.461Z,14.86
2023-04-19T08:45:51.569Z,14.74
2023-04-19T08:48:37.469Z,14.83
2023-04-19T08:51:19.698Z,14.86
2023-04-19T08:53:51.434Z,14.85
2023-04-19T08:56:34.898Z,14.64
2023-04-19T08:59:20.117Z,14.46
2023-04-19T09:01:55.509Z,14.55
2023-04-19T09:04:40.797Z,14.60
2023-04-19T09:07:14.449Z,14.58
2023-04-19T09:10:02.448Z,14.73
2023-04-19T09:12:38.797Z,14.90
2023-04-19T09:15:17.749Z,15.09
2023-04-19T09:18:12.685Z,15.17
2023-04-19T09:20:47.266Z,15.08
2023-04-19T09:23:24.980Z,15.13
2023-04-19T09:26:23.287Z,15.18
2023-04-19T09:29:22.465Z,15.43
2023-04-19T09:32:12.846Z,15.47
2023-04-19T09:34:53.369Z,15.66
2023-04-19T09:37:51.524Z,15.58
2023-04-19T09:40:32.628Z,15.92
2023-04-19T09:43:45.146Z,16.09
2023-04-19T09:46:20.609Z,16.18
2023-04-19T09:48:52.364Z,16.09
2023-04-19T09:51:32.696Z,15.92
2023-04-19T09:54:03.315Z,15.73
2023-04-19T09:56:44.722Z,15.55
2023-04-19T09:59:21.850Z,15.60
2023-04-19T10:05:03.394Z,16.33
2023-04-19T10:07:40.639Z,16.22
2023-04-19T10:10:20.266Z,16.42
2023-04-19T10:13:18.331Z,16.51
2023-04-19T10:16:04.550Z,16.46
2023-04-19T10:18:41.106Z,16.30
2023-04-19T10:21:11.605Z,16.38
2023-04-19T10:23:41.268Z,16.55
2023-04-19T10:26:12.310Z,16.31
2023-04-19T10:28:54.533Z,16.33
2023-04-19T10:31:31.697Z,16.29
2023-04-19T10:34:03.669Z,16.40
2023-04-19T10:36:37.794Z,16.43
2023-04-19T10:39:53.003Z,16.36
2023-04-19T10:42:24.010Z,16.53
2023-04-19T10:45:32.169Z,16.65
2023-04-19T10:48:10.692Z,16.58
2023-04-19T10:51:02.131Z,16.44
2023-04-19T10:53:51.545Z,16.51
2023-04-19T10:56:37.274Z,16.38
2023-04-19T10:59:15.298Z,16.32
2023-04-19T11:01:59.575Z,16.37
2023-04-19T11:04:46.581Z,16.59
2023-04-19T11:07:38.357Z,16.28
2023-04-19T11:10:10.271Z,16.43
2023-04-19T11:12:53.821Z,16.42
2023-04-19T11:15:31.667Z,16.51
2023-04-19T11:18:12.501Z,16.36
2023-04-19T11:20:46.587Z,16.46
2023-04-19T11:23:30.492Z,16.59
2023-04-19T11:26:08.984Z,16.65
2023-04-19T11:28:39.803Z,16.47
2023-04-19T11:31:11.034Z,16.45
2023-04-19T11:33:42.764Z,16.55
2023-04-19T11:36:18.701Z,16.63
2023-04-19T11:39:10.565Z,16.33
2023-04-19T11:41:49.480Z,16.61
2023-04-19T11:44:47.886Z,16.61
2023-04-19T11:47:19.781Z,16.54
2023-04-19T11:52:41.114Z,16.44
2023-04-19T11:55:24.984Z,16.43
2023-04-19T11:57:55.894Z,16.47
2023-04-19T12:00:33.528Z,16.82
2023-04-19T12:03:14.488Z,16.80
2023-04-19T12:05:59.637Z,16.59
2023-04-19T12:08:50.149Z,16.71
2023-04-19T12:11:28.676Z,17.00
2023-04-19T12:14:17.850Z,16.97
2023-04-19T12:19:39.459Z,16.91
2023-04-19T12:22:34.011Z,16.78
2023-04-19T12:25:12.796Z,16.81
2023-04-19T12:27:51.183Z,16.72
2023-04-19T12:30:26.180Z,16.69
2023-04-19T12:33:01.392Z,16.84
2023-04-19T12:35:36.542Z,16.88
2023-04-19T12:38:14.006Z,16.76
2023-04-19T12:40:44.665Z,16.32
2023-04-19T12:43:17.231Z,16.21
2023-04-19T12:45:53.721Z,16.18
2023-04-19T12:48:29.433Z,16.37
2023-04-19T12:51:05.863Z,16.00
2023-04-19T12:53:39.502Z,16.17
2023-04-19T12:56:08.841Z,16.45
2023-04-19T12:58:40.501Z,16.77
2023-04-19T13:01:09.918Z,17.39
2023-04-19T13:03:41.141Z,17.80
2023-04-19T13:06:13.581Z,18.02
2023-04-19T13:08:51.287Z,19.58
2023-04-19T13:11:24.311Z,18.76
2023-04-19T13:13:55.417Z,17.99
2023-04-19T13:16:38.922Z,17.56
2023-04-19T13:19:12.675Z,17.33
2023-04-19T13:21:43.612Z,17.37
2023-04-19T13:24:14.623Z,17.59
2023-04-19T13:26:55.026Z,17.19
2023-04-19T13:29:25.648Z,16.73
2023-04-19T13:31:59.124Z,16.69
2023-04-19T13:34:36.945Z,16.59
2023-04-19T13:37:10.682Z,16.43
2023-04-19T13:39:41.193Z,16.67
2023-04-19T13:42:13.693Z,16.83
2023-04-19T13:44:48.827Z,17.06
2023-04-19T13:47:23.142Z,17.06
2023-04-19T13:50:01.992Z,17.17
2023-04-19T13:52:39.802Z,18.45
2023-04-19T13:55:14.709Z,18.28
2023-04-19T13:57:43.853Z,17.51
2023-04-19T14:00:18.562Z,17.71
2023-04-19T14:02:52.563Z,17.81
2023-04-19T14:05:24.098Z,17.75
2023-04-19T14:07:53.452Z,18.02
2023-04-19T14:10:33.787Z,18.44
2023-04-19T14:13:05.173Z,18.79
2023-04-19T14:15:35.277Z,19.91
2023-04-19T14:18:11.097Z,19.78
2023-04-19T14:20:42.415Z,19.59
2023-04-19T14:23:16.735Z,20.04
2023-04-19T14:28:33.165Z,18.91
2023-04-19T14:31:04.322Z,18.65
2023-04-19T14:33:34.750Z,18.23
2023-04-19T14:36:13.816Z,17.95
2023-04-19T14:38:45.538Z,17.69
2023-04-19T14:41:13.778Z,18.02
2023-04-19T14:43:47.522Z,18.11
2023-04-19T14:46:35.045Z,18.11
2023-04-19T14:49:08.135Z,18.19
2023-04-19T14:51:46.260Z,18.64
2023-04-19T14:54:16.418Z,21.80
2023-04-19T14:56:47.882Z,23.56
2023-04-19T14:59:23.185Z,22.38
2023-04-19T15:01:53.369Z,21.13
2023-04-19T15:04:24.976Z,19.56
2023-04-19T15:06:55.023Z,18.45
2023-04-19T15:09:27.942Z,18.30
2023-04-19T15:12:02.697Z,17.42
2023-04-19T15:14:39.886Z,17.42
2023-04-19T15:17:13.957Z,17.15
2023-04-19T15:19:49.933Z,17.08
2023-04-19T15:22:25.936Z,17.14
2023-04-19T15:25:00.885Z,17.26
2023-04-19T15:27:31.714Z,17.77
2023-04-19T15:30:03.891Z,18.31
2023-04-19T15:32:50.169Z,18.84
2023-04-19T15:35:26.278Z,19.04
2023-04-19T15:37:56.930Z,18.49
2023-04-19T15:40:29.522Z,18.61
2023-04-19T15:45:43.373Z,19.15
2023-04-19T15:48:16.769Z,19.19
2023-04-19T15:50:53.166Z,17.44
2023-04-19T15:53:21.947Z,17.00
2023-04-19T15:55:55.772Z,16.58
2023-04-19T15:58:30.215Z,16.28
2023-04-19T16:00:59.955Z,16.24
2023-04-19T16:03:34.132Z,15.79
2023-04-19T16:06:08.882Z,15.81
2023-04-19T16:08:39.248Z,15.53
2023-04-19T16:11:11.017Z,15.32
2023-04-19T16:13:41.313Z,15.32
2023-04-19T16:16:21.703Z,15.11
2023-04-19T16:18:52.659Z,15.15
2023-04-19T16:21:29.051Z,15.18
2023-04-19T16:24:04.228Z,15.12
2023-04-19T16:26:40.444Z,14.64
2023-04-19T16:29:26.843Z,14.65
2023-04-19T16:31:57.043Z,14.42
2023-04-19T16:34:27.798Z,14.23
2023-04-19T16:37:09.463Z,14.07
2023-04-19T16:39:40.283Z,14.02
2023-04-19T16:42:16.840Z,14.24
2023-04-19T16:44:46.696Z,14.13
2023-04-19T16:47:20.788Z,14.20
2023-04-19T16:49:54.874Z,14.35
2023-04-19T16:52:33.897Z,14.30
2023-04-19T16:55:13.317Z,14.15
2023-04-19T16:57:46.604Z,13.78
2023-04-19T17:00:20.074Z,13.65
2023-04-19T17:05:42.257Z,13.90
2023-04-19T17:08:13.037Z,13.54
2023-04-19T17:10:43.696Z,13.63
2023-04-19T17:13:15.180Z,13.70
2023-04-19T17:15:45.864Z,13.74
2023-04-19T17:18:37.352Z,13.54
2023-04-19T17:21:19.411Z,13.52
2023-04-19T17:23:52.240Z,13.34
2023-04-19T17:26:22.709Z,13.55
2023-04-19T17:31:44.541Z,12.91
2023-04-19T17:34:23.591Z,13.14
2023-04-19T17:36:55.674Z,13.30
2023-04-19T17:39:28.065Z,13.19
2023-04-19T17:42:06.347Z,13.23
2023-04-19T17:44:43.889Z,13.10
2023-04-19T17:47:19.959Z,13.01
2023-04-19T17:49:48.482Z,13.27
2023-04-19T17:52:20.170Z,13.30
2023-04-19T17:54:49.354Z,13.36
2023-04-19T17:57:23.017Z,13.28
2023-04-19T18:00:06.764Z,13.29
2023-04-19T18:03:01.369Z,12.94
2023-04-19T18:05:32.318Z,13.00
2023-04-19T18:08:05.605Z,13.29
2023-04-19T18:13:25.793Z,13.31
2023-04-19T18:15:57.263Z,13.05
2023-04-19T18:18:34.139Z,13.01
2023-04-19T18:21:07.085Z,12.81
2023-04-19T18:23:38.839Z,12.71
2023-04-19T18:26:11.410Z,12.89
2023-04-19T18:28:44.301Z,13.19
2023-04-19T18:31:23.066Z,13.08
2023-04-19T18:33:50.980Z,12.90
2023-04-19T18:36:32.026Z,12.81
2023-04-19T18:39:00.541Z,12.93
2023-04-19T18:41:36.428Z,12.82
2023-04-19T18:44:34.626Z,12.84
2023-04-19T18:46:59.929Z,12.76
2023-04-19T18:49:30.412Z,12.72
2023-04-19T18:52:06.849Z,12.73
2023-04-19T18:54:38.001Z,12.77
2023-04-19T19:00:00.791Z,12.82
2023-04-19T19:02:32.257Z,12.85
2023-04-19T19:05:03.437Z,12.60
2023-04-19T19:07:37.811Z,12.83
2023-04-19T19:10:49.817Z,12.69
2023-04-19T19:13:15.155Z,12.67
2023-04-19T19:15:44.813Z,12.89
2023-04-19T19:18:15.302Z,12.68
2023-04-19T19:20:49.146Z,12.73
2023-04-19T19:23:35.447Z,12.67
2023-04-19T19:26:09.669Z,12.62
2023-04-19T19:28:37.447Z,12.63
2023-04-19T19:31:08.116Z,12.81
2023-04-19T19:33:40.542Z,12.94
2023-04-19T19:36:13.664Z,12.88
2023-04-19T19:42:00.711Z,12.89
2023-04-19T19:44:20.493Z,12.72
2023-04-19T19:46:48.819Z,12.72
2023-04-19T19:49:19.638Z,12.63
2023-04-19T19:51:58.200Z,12.66
2023-04-19T19:54:29.257Z,12.79
2023-04-19T19:59:34.477Z,12.64
2023-04-19T20:02:09.618Z,12.52
2023-04-19T20:04:39.480Z,12.37
2023-04-19T20:07:37.203Z,12.39
2023-04-19T20:10:17.551Z,12.38
2023-04-19T20:12:52.070Z,12.41
2023-04-19T20:15:19.922Z,12.42
2023-04-19T20:17:50.360Z,12.36
2023-04-19T20:20:24.619Z,12.36
2023-04-19T20:23:00.348Z,12.30
2023-04-19T20:25:30.910Z,12.47
2023-04-19T20:28:15.294Z,12.41
2023-04-19T20:30:43.265Z,12.22
2023-04-19T20:33:11.882Z,12.46
2023-04-19T20:35:46.675Z,12.32
2023-04-19T20:38:18.944Z,12.31
2023-04-19T20:40:47.395Z,12.40
2023-04-19T20:43:31.215Z,12.50
2023-04-19T20:46:01.671Z,12.52
2023-04-19T20:48:31.037Z,12.44
2023-04-19T20:50:59.206Z,12.34
2023-04-19T20:53:30.169Z,12.37
2023-04-19T20:56:11.803Z,12.23
2023-04-19T20:58:48.503Z,12.02
2023-04-19T21:01:18.052Z,11.90
2023-04-19T21:03:47.899Z,11.96
2023-04-19T21:06:33.953Z,12.06
2023-04-19T21:09:04.966Z,11.90
2023-04-19T21:11:34.560Z,11.76
2023-04-19T21:14:07.394Z,11.77
2023-04-19T21:16:38.060Z,11.71
2023-04-19T21:19:10.258Z,11.72
2023-04-19T21:21:44.293Z,11.81
2023-04-19T21:24:17.813Z,11.80
2023-04-19T21:27:03.002Z,11.92
2023-04-19T21:29:38.384Z,11.79
2023-04-19T21:32:28.553Z,11.82
2023-04-19T21:35:04.464Z,11.95
2023-04-19T21:37:33.130Z,11.67
2023-04-19T21:40:05.741Z,11.70
2023-04-19T21:42:35.637Z,11.61
2023-04-19T21:45:09.306Z,11.45
2023-04-19T21:47:54.350Z,11.51
2023-04-19T21:50:22.342Z,11.38
2023-04-19T21:52:57.786Z,11.53
2023-04-19T21:55:27.798Z,11.82
2023-04-19T21:58:01.404Z,11.76
2023-04-19T22:00:38.065Z,11.39
2023-04-19T22:06:04.420Z,11.53
2023-04-19T22:08:42.427Z,11.59
2023-04-19T22:11:13.203Z,11.60
2023-04-19T22:13:46.985Z,11.56
2023-04-19T22:16:41.854Z,11.52
2023-04-19T22:19:14.622Z,11.57
2023-04-19T22:21:44.261Z,11.68
2023-04-19T22:24:14.853Z,11.69
2023-04-19T22:26:51.555Z,11.77
2023-04-19T22:29:27.656Z,11.80
2023-04-19T22:31:56.907Z,11.72
2023-04-19T22:34:39.265Z,11.67
2023-04-19T22:37:14.420Z,11.69
2023-04-19T22:39:50.128Z,11.67
2023-04-19T22:42:25.705Z,11.61
2023-04-19T22:44:59.054Z,11.51
2023-04-19T22:47:39.641Z,11.56
2023-04-19T22:53:01.267Z,11.59
2023-04-19T22:55:29.408Z,11.55
2023-04-19T22:58:03.763Z,11.59
2023-04-19T23:00:43.764Z,11.41
2023-04-19T23:03:15.094Z,11.45
2023-04-19T23:05:47.307Z,11.44
2023-04-19T23:08:16.875Z,11.51
2023-04-19T23:13:36.195Z,11.35
2023-04-19T23:16:13.436Z,11.42
2023-04-19T23:18:41.616Z,11.45
2023-04-19T23:21:11.865Z,11.50
2023-04-19T23:23:42.277Z,11.48
2023-04-19T23:26:16.331Z,11.52
2023-04-19T23:28:44.273Z,11.44
2023-04-19T23:31:15.219Z,11.39
2023-04-19T23:33:50.534Z,11.45
2023-04-19T23:36:18.227Z,11.40
2023-04-19T23:38:47.252Z,11.40
2023-04-19T23:41:19.119Z,11.42
2023-04-19T23:43:54.484Z,11.47
2023-04-19T23:46:24.760Z,11.43
2023-04-19T23:49:03.549Z,11.42
2023-04-19T23:51:33.568Z,11.42
2023-04-19T23:54:13.698Z,11.37
2023-04-19T23:56:46.490Z,11.38
2023-04-19T23:59:18.265Z,11.34
